Wilson Mersin — P3PA6 — position and weather

sailwx.info

Track history (hours):
 
Tides and Currents Weather Stations Pressure Air Temp Water Temp Dewpoint Dewpoint Depression Visibility Wind Speed Wind Dir Waves Ship Positions

Wilson Mersin

Last reported at 2014-Nov-26 20:18 UTC. Time now 2014-Nov-26 23:05 UTC.
Position N 54°51' E 015°19'.

Length 107 m; draft 7 m.

Type: Cargo ship. MMSI: 210072000.

Date/timePositionNaut miles runAvg speedWind from/ knotsBaromVisibWave heightAir tempDewpointWater temp
2014-Nov-26 20:18N 54°51' E 015°19'1012.7
2014-Nov-26 19:33N 54°52' E 015°03'1312.7
2014-Nov-26 18:33N 54°54' E 014°41'1312.6
2014-Nov-26 17:33N 54°56' E 014°19'1312.7
2014-Nov-26 16:31N 54°59' E 013°57'3812.6
2014-Nov-26 13:32N 55°13' E 012°56'1111.8
2014-Nov-26 12:33N 55°18' E 012°38'1212.1
2014-Nov-26 11:33N 55°30' E 012°42'1111.4
2014-Nov-26 10:33N 55°42' E 012°41'1111.3
2014-Nov-26 09:33N 55°53' E 012°39'1111.0
2014-Nov-26 08:33N 56°04' E 012°37'1212.0
2014-Nov-26 07:33N 56°11' E 012°20'2812.0
2014-Nov-26 05:14N 56°36' E 011°56'4812.4
2014-Nov-26 01:24N 57°21' E 011°29'1012.1
2014-Nov-26 00:33N 57°30' E 011°19'1311.9
2014-Nov-25 23:28N 57°39' E 011°01'1212.5
2014-Nov-25 22:29N 57°47' E 010°44'14112.9
2014-Nov-25 11:31N 58°06' E 006°21'1313.5
2014-Nov-25 10:32N 58°14' E 006°02'1312.7
2014-Nov-25 09:32N 58°23' E 005°44'3012.4
2014-Nov-25 07:09N 58°48' E 005°13'711.7
2014-Nov-25 06:32N 58°54' E 005°06'  
2014-Nov-20 15:32N 53°59' E 004°51'1613.8
2014-Nov-20 14:23N 53°43' E 004°50'1113.8
2014-Nov-20 13:33N 53°32' E 004°48'1413.6
2014-Nov-20 12:31N 53°19' E 004°37'1313.2
2014-Nov-20 11:33N 53°08' E 004°28'1713.2
2014-Nov-20 10:14N 52°52' E 004°15'1212.7
2014-Nov-20 09:18N 52°43' E 004°04'5812.2
2014-Nov-20 04:32N 51°51' E 003°20'10 9.6
2014-Nov-20 03:31N 51°41' E 003°18'1313.3
2014-Nov-20 02:33N 51°30' E 003°28'1110.7
2014-Nov-20 01:33N 51°24' E 003°43'6 6.0
2014-Nov-20 00:34N 51°20' E 003°49'3 3.4
2014-Nov-19 23:33N 51°16' E 003°50'7 6.6
2014-Nov-19 22:34N 51°10' E 003°48'5 4.7
2014-Nov-19 21:30N 51°05' E 003°44'0 0.0
2014-Nov-19 20:25N 51°05' E 003°44'0 0.0
2014-Nov-19 19:28N 51°05' E 003°44'0 0.0
2014-Nov-19 18:31N 51°05' E 003°44'0 0.0
2014-Nov-19 17:28N 51°05' E 003°44'0 0.0
2014-Nov-19 16:31N 51°05' E 003°44'0 0.0
2014-Nov-19 15:31N 51°05' E 003°44'0 0.0
2014-Nov-19 14:31N 51°05' E 003°44'0 0.0
2014-Nov-19 13:31N 51°05' E 003°44'0 0.0
2014-Nov-19 12:31N 51°05' E 003°44'0 0.0
2014-Nov-19 11:31N 51°05' E 003°44'0 0.0
2014-Nov-19 10:31N 51°05' E 003°44'0 0.0
2014-Nov-19 09:31N 51°05' E 003°44'0 0.0
2014-Nov-19 08:31N 51°05' E 003°44'0 0.0
2014-Nov-19 07:31N 51°05' E 003°44'0 0.0
2014-Nov-19 06:25N 51°05' E 003°44'0 0.0
2014-Nov-19 05:32N 51°05' E 003°44'0 0.0
2014-Nov-19 04:32N 51°05' E 003°44'0 0.0
2014-Nov-19 03:29N 51°05' E 003°44'0 0.0
2014-Nov-19 02:32N 51°05' E 003°44'0 0.0
2014-Nov-19 01:32N 51°05' E 003°44'0 0.0
2014-Nov-19 00:32N 51°05' E 003°44'0 0.0
2014-Nov-18 23:32N 51°05' E 003°44'0 0.0
2014-Nov-18 22:32N 51°05' E 003°44'0 0.0
2014-Nov-18 21:29N 51°05' E 003°44'0 0.0
2014-Nov-18 20:32N 51°05' E 003°44'0 0.0
2014-Nov-18 19:32N 51°05' E 003°44'0 0.0
2014-Nov-18 18:32N 51°05' E 003°44'0 0.0
2014-Nov-18 17:32N 51°05' E 003°44'0 0.0
2014-Nov-18 16:32N 51°05' E 003°44'0 0.0
2014-Nov-18 15:28N 51°05' E 003°44'0 0.0
2014-Nov-18 14:31N 51°05' E 003°44'0 0.1
2014-Nov-18 13:33N 51°05' E 003°44'5 5.1
2014-Nov-18 12:33N 51°10' E 003°48'7 7.2
2014-Nov-18 11:33N 51°17' E 003°50'3 3.4
2014-Nov-18 10:34N 51°20' E 003°49'1010.2
2014-Nov-18 09:34N 51°26' E 003°35'1111.2
2014-Nov-18 08:34N 51°35' E 003°24'1110.9
2014-Nov-18 07:33N 51°44' E 003°14'8 8.1
2014-Nov-18 06:33N 51°52' E 003°17'  
Track history (hours):
 
Tides and Currents Weather Stations Pressure Air Temp Water Temp Dewpoint Dewpoint Depression Visibility Wind Speed Wind Dir Waves Ship Positions

Wilson Mersin

Last reported at 2014-Nov-26 20:18 UTC. Time now 2014-Nov-26 23:05 UTC.
Position N 54°51' E 015°19'.

Length 107 m; draft 7 m.

Type: Cargo ship. MMSI: 210072000.

Date/timePositionNaut miles runAvg speedWind from/ knotsBaromVisibWave heightAir tempDewpointWater temp
2014-Nov-26 20:18N 54°51' E 015°19'1012.7
2014-Nov-26 19:33N 54°52' E 015°03'1312.7
2014-Nov-26 18:33N 54°54' E 014°41'1312.6
2014-Nov-26 17:33N 54°56' E 014°19'1312.7
2014-Nov-26 16:31N 54°59' E 013°57'3812.6
2014-Nov-26 13:32N 55°13' E 012°56'1111.8
2014-Nov-26 12:33N 55°18' E 012°38'1212.1
2014-Nov-26 11:33N 55°30' E 012°42'1111.4
2014-Nov-26 10:33N 55°42' E 012°41'1111.3
2014-Nov-26 09:33N 55°53' E 012°39'1111.0
2014-Nov-26 08:33N 56°04' E 012°37'1212.0
2014-Nov-26 07:33N 56°11' E 012°20'2812.0
2014-Nov-26 05:14N 56°36' E 011°56'4812.4
2014-Nov-26 01:24N 57°21' E 011°29'1012.1
2014-Nov-26 00:33N 57°30' E 011°19'1311.9
2014-Nov-25 23:28N 57°39' E 011°01'1212.5
2014-Nov-25 22:29N 57°47' E 010°44'14112.9
2014-Nov-25 11:31N 58°06' E 006°21'1313.5
2014-Nov-25 10:32N 58°14' E 006°02'1312.7
2014-Nov-25 09:32N 58°23' E 005°44'3012.4
2014-Nov-25 07:09N 58°48' E 005°13'711.7
2014-Nov-25 06:32N 58°54' E 005°06'  
2014-Nov-20 15:32N 53°59' E 004°51'1613.8
2014-Nov-20 14:23N 53°43' E 004°50'1113.8
2014-Nov-20 13:33N 53°32' E 004°48'1413.6
2014-Nov-20 12:31N 53°19' E 004°37'1313.2
2014-Nov-20 11:33N 53°08' E 004°28'1713.2
2014-Nov-20 10:14N 52°52' E 004°15'1212.7
2014-Nov-20 09:18N 52°43' E 004°04'5812.2
2014-Nov-20 04:32N 51°51' E 003°20'10 9.6
2014-Nov-20 03:31N 51°41' E 003°18'1313.3
2014-Nov-20 02:33N 51°30' E 003°28'1110.7
2014-Nov-20 01:33N 51°24' E 003°43'6 6.0
2014-Nov-20 00:34N 51°20' E 003°49'3 3.4
2014-Nov-19 23:33N 51°16' E 003°50'7 6.6
2014-Nov-19 22:34N 51°10' E 003°48'5 4.7
2014-Nov-19 21:30N 51°05' E 003°44'0 0.0
2014-Nov-19 20:25N 51°05' E 003°44'0 0.0
2014-Nov-19 19:28N 51°05' E 003°44'0 0.0
2014-Nov-19 18:31N 51°05' E 003°44'0 0.0
2014-Nov-19 17:28N 51°05' E 003°44'0 0.0
2014-Nov-19 16:31N 51°05' E 003°44'0 0.0
2014-Nov-19 15:31N 51°05' E 003°44'0 0.0
2014-Nov-19 14:31N 51°05' E 003°44'0 0.0
2014-Nov-19 13:31N 51°05' E 003°44'0 0.0
2014-Nov-19 12:31N 51°05' E 003°44'0 0.0
2014-Nov-19 11:31N 51°05' E 003°44'0 0.0
2014-Nov-19 10:31N 51°05' E 003°44'0 0.0
2014-Nov-19 09:31N 51°05' E 003°44'0 0.0
2014-Nov-19 08:31N 51°05' E 003°44'0 0.0
2014-Nov-19 07:31N 51°05' E 003°44'0 0.0
2014-Nov-19 06:25N 51°05' E 003°44'0 0.0
2014-Nov-19 05:32N 51°05' E 003°44'0 0.0
2014-Nov-19 04:32N 51°05' E 003°44'0 0.0
2014-Nov-19 03:29N 51°05' E 003°44'0 0.0
2014-Nov-19 02:32N 51°05' E 003°44'0 0.0
2014-Nov-19 01:32N 51°05' E 003°44'0 0.0
2014-Nov-19 00:32N 51°05' E 003°44'0 0.0
2014-Nov-18 23:32N 51°05' E 003°44'0 0.0
2014-Nov-18 22:32N 51°05' E 003°44'0 0.0
2014-Nov-18 21:29N 51°05' E 003°44'0 0.0
2014-Nov-18 20:32N 51°05' E 003°44'0 0.0
2014-Nov-18 19:32N 51°05' E 003°44'0 0.0
2014-Nov-18 18:32N 51°05' E 003°44'0 0.0
2014-Nov-18 17:32N 51°05' E 003°44'0 0.0
2014-Nov-18 16:32N 51°05' E 003°44'0 0.0
2014-Nov-18 15:28N 51°05' E 003°44'0 0.0
2014-Nov-18 14:31N 51°05' E 003°44'0 0.1
2014-Nov-18 13:33N 51°05' E 003°44'5 5.1
2014-Nov-18 12:33N 51°10' E 003°48'7 7.2
2014-Nov-18 11:33N 51°17' E 003°50'3 3.4
2014-Nov-18 10:34N 51°20' E 003°49'1010.2
2014-Nov-18 09:34N 51°26' E 003°35'1111.2
2014-Nov-18 08:34N 51°35' E 003°24'1110.9
2014-Nov-18 07:33N 51°44' E 003°14'8 8.1
2014-Nov-18 06:33N 51°52' E 003°17'  

Dump ship's entire track history